createdAt,value
2022-09-29T00:00:02.029Z,991.68
2022-09-29T00:01:01.772Z,991.67
2022-09-29T00:02:02.884Z,991.69
2022-09-29T00:03:02.461Z,991.69
2022-09-29T00:04:02.498Z,991.70
2022-09-29T00:05:02.200Z,991.71
2022-09-29T00:06:02.514Z,991.76
2022-09-29T00:07:02.709Z,991.74
2022-09-29T00:08:02.426Z,991.75
2022-09-29T00:09:02.764Z,991.74
2022-09-29T00:10:02.354Z,991.75
2022-09-29T00:11:02.721Z,991.76
2022-09-29T00:12:03.071Z,991.80
2022-09-29T00:13:02.494Z,991.78
2022-09-29T00:14:02.855Z,991.77
2022-09-29T00:15:02.522Z,991.78
2022-09-29T00:16:02.960Z,991.78
2022-09-29T00:17:03.209Z,991.79
2022-09-29T00:18:13.694Z,991.80
2022-09-29T00:19:03.066Z,991.77
2022-09-29T00:20:02.846Z,991.76
2022-09-29T00:21:02.573Z,991.78
2022-09-29T00:22:02.047Z,991.77
2022-09-29T00:23:02.348Z,991.74
2022-09-29T00:24:02.381Z,991.77
2022-09-29T00:25:02.173Z,991.76
2022-09-29T00:26:02.533Z,991.76
2022-09-29T00:27:02.636Z,991.73
2022-09-29T00:28:02.197Z,991.72
2022-09-29T00:29:02.686Z,991.71
2022-09-29T00:30:02.327Z,991.68
2022-09-29T00:31:02.516Z,991.70
2022-09-29T00:32:02.271Z,991.66
2022-09-29T00:33:02.659Z,991.69
2022-09-29T00:34:02.415Z,991.67
2022-09-29T00:35:02.790Z,991.67
2022-09-29T00:36:02.263Z,991.66
2022-09-29T00:37:02.818Z,991.71
2022-09-29T00:38:03.101Z,991.68
2022-09-29T00:39:02.786Z,991.68
2022-09-29T00:40:03.157Z,991.69
2022-09-29T00:41:02.804Z,991.63
2022-09-29T00:42:02.179Z,991.65
2022-09-29T00:43:02.759Z,991.67
2022-09-29T00:44:02.174Z,991.66
2022-09-29T00:45:02.562Z,991.67
2022-09-29T00:46:02.649Z,991.66
2022-09-29T00:47:02.358Z,991.70
2022-09-29T00:48:01.878Z,991.72
2022-09-29T00:49:02.243Z,991.70
2022-09-29T00:50:01.926Z,991.69
2022-09-29T00:51:02.277Z,991.73
2022-09-29T00:52:02.242Z,991.71
2022-09-29T00:53:02.627Z,991.69
2022-09-29T00:54:02.360Z,991.70
2022-09-29T00:55:02.715Z,991.73
2022-09-29T00:56:02.108Z,991.72
2022-09-29T00:57:02.485Z,991.73
2022-09-29T00:58:02.774Z,991.70
2022-09-29T00:59:02.944Z,991.74
2022-09-29T01:00:02.377Z,991.71
2022-09-29T01:01:02.850Z,991.75
2022-09-29T01:02:02.609Z,991.71
2022-09-29T01:03:02.697Z,991.70
2022-09-29T01:04:02.485Z,991.76
2022-09-29T01:05:02.768Z,991.75
2022-09-29T01:06:02.944Z,991.71
2022-09-29T01:07:02.903Z,991.70
2022-09-29T01:08:02.581Z,991.70
2022-09-29T01:09:02.939Z,991.71
2022-09-29T01:10:02.649Z,991.75
2022-09-29T01:11:02.997Z,991.72
2022-09-29T01:12:03.190Z,991.76
2022-09-29T01:13:02.590Z,991.77
2022-09-29T01:14:02.953Z,991.77
2022-09-29T01:15:02.625Z,991.79
2022-09-29T01:16:03.031Z,991.81
2022-09-29T01:17:02.735Z,991.78
2022-09-29T01:18:03.199Z,991.76
2022-09-29T01:19:03.233Z,991.77
2022-09-29T01:20:04.764Z,991.77
2022-09-29T01:21:03.102Z,991.81
2022-09-29T01:22:02.759Z,991.79
2022-09-29T01:23:03.124Z,991.79
2022-09-29T01:24:02.796Z,991.80
2022-09-29T01:25:03.163Z,991.80
2022-09-29T01:26:02.851Z,991.82
2022-09-29T01:27:02.296Z,991.80
2022-09-29T01:28:02.390Z,991.78
2022-09-29T01:29:02.094Z,991.77
2022-09-29T01:30:02.556Z,991.80
2022-09-29T01:31:02.336Z,991.84
2022-09-29T01:32:02.760Z,991.82
2022-09-29T01:33:03.126Z,991.83
2022-09-29T01:34:02.893Z,991.87
2022-09-29T01:35:02.583Z,991.87
2022-09-29T01:36:03.045Z,991.84
2022-09-29T01:37:02.670Z,991.87
2022-09-29T01:38:02.488Z,991.88
2022-09-29T01:39:02.163Z,991.89
2022-09-29T01:40:02.548Z,991.88
2022-09-29T01:41:02.381Z,991.88
2022-09-29T01:42:02.754Z,991.95
2022-09-29T01:43:03.156Z,991.90
2022-09-29T01:44:02.617Z,991.94
2022-09-29T01:45:02.998Z,991.91
2022-09-29T01:46:02.740Z,991.94
2022-09-29T01:47:03.207Z,991.94
2022-09-29T01:48:02.883Z,991.90
2022-09-29T01:49:03.240Z,991.93
2022-09-29T01:50:03.192Z,991.91
2022-09-29T01:51:03.490Z,991.89
2022-09-29T01:52:02.657Z,991.91
2022-09-29T01:53:02.353Z,991.89
2022-09-29T01:54:02.751Z,991.89
2022-09-29T01:55:02.441Z,991.93
2022-09-29T01:56:02.941Z,991.93
2022-09-29T01:57:03.023Z,991.96
2022-09-29T01:58:02.748Z,991.94
2022-09-29T01:59:03.123Z,991.91
2022-09-29T02:00:03.164Z,991.96
2022-09-29T02:01:02.957Z,991.93
2022-09-29T02:02:02.470Z,991.95
2022-09-29T02:03:02.175Z,991.94
2022-09-29T02:04:02.566Z,991.95
2022-09-29T02:05:02.133Z,991.93
2022-09-29T02:06:02.571Z,991.91
2022-09-29T02:07:02.950Z,991.94
2022-09-29T02:08:02.650Z,991.95
2022-09-29T02:09:03.021Z,991.92
2022-09-29T02:10:02.701Z,991.93
2022-09-29T02:11:03.051Z,991.90
2022-09-29T02:12:02.375Z,991.93
2022-09-29T02:13:02.054Z,991.94
2022-09-29T02:14:02.399Z,991.91
2022-09-29T02:15:02.071Z,991.92
2022-09-29T02:16:02.469Z,991.93
2022-09-29T02:17:02.916Z,991.93
2022-09-29T02:18:02.584Z,991.91
2022-09-29T02:19:02.939Z,991.91
2022-09-29T02:20:02.611Z,991.92
2022-09-29T02:21:02.989Z,991.94
2022-09-29T02:22:02.412Z,991.93
2022-09-29T02:23:01.991Z,991.94
2022-09-29T02:24:02.364Z,991.94
2022-09-29T02:25:02.009Z,991.96
2022-09-29T02:26:02.385Z,991.94
2022-09-29T02:27:02.747Z,991.92
2022-09-29T02:28:02.426Z,991.92
2022-09-29T02:29:02.842Z,991.92
2022-09-29T02:30:02.288Z,991.90
2022-09-29T02:31:02.661Z,991.90
2022-09-29T02:32:02.983Z,991.91
2022-09-29T02:33:03.113Z,991.92
2022-09-29T02:34:02.487Z,991.91
2022-09-29T02:35:02.882Z,991.90
2022-09-29T02:36:02.639Z,991.92
2022-09-29T02:37:02.729Z,991.91
2022-09-29T02:38:03.155Z,991.96
2022-09-29T02:39:02.670Z,991.95
2022-09-29T02:40:02.912Z,991.91
2022-09-29T02:41:02.602Z,991.95
2022-09-29T02:42:02.727Z,991.95
2022-09-29T02:43:02.485Z,991.95
2022-09-29T02:44:02.166Z,991.98
2022-09-29T02:45:02.559Z,991.98
2022-09-29T02:46:02.383Z,991.99
2022-09-29T02:47:02.810Z,991.99
2022-09-29T02:48:02.500Z,991.96
2022-09-29T02:49:02.850Z,991.93
2022-09-29T02:50:02.389Z,991.93
2022-09-29T02:51:02.715Z,991.95
2022-09-29T02:52:03.038Z,991.94
2022-09-29T02:53:02.708Z,991.92
2022-09-29T02:54:03.053Z,991.93
2022-09-29T02:55:02.741Z,991.94
2022-09-29T02:56:03.118Z,991.94
2022-09-29T02:57:03.195Z,991.97
2022-09-29T02:58:02.698Z,991.95
2022-09-29T02:59:03.083Z,991.95
2022-09-29T03:00:02.755Z,991.96
2022-09-29T03:01:03.327Z,991.98
2022-09-29T03:02:02.563Z,991.97
2022-09-29T03:03:01.989Z,991.94
2022-09-29T03:04:04.703Z,991.98
2022-09-29T03:05:02.009Z,992.01
2022-09-29T03:06:02.373Z,992.01
2022-09-29T03:07:02.826Z,992.01
2022-09-29T03:08:02.286Z,992.01
2022-09-29T03:09:02.665Z,992.01
2022-09-29T03:10:02.358Z,992.02
2022-09-29T03:11:02.725Z,992.02
2022-09-29T03:12:01.470Z,991.99
2022-09-29T03:13:01.813Z,991.98
2022-09-29T03:14:02.109Z,992.00
2022-09-29T03:15:01.537Z,991.95
2022-09-29T03:16:01.981Z,991.97
2022-09-29T03:17:02.133Z,991.96
2022-09-29T03:18:03.162Z,991.97
2022-09-29T03:19:02.136Z,991.98
2022-09-29T03:20:02.500Z,991.97
2022-09-29T03:21:02.174Z,992.00
2022-09-29T03:22:01.822Z,991.99
2022-09-29T03:23:02.205Z,991.99
2022-09-29T03:24:01.882Z,992.01
2022-09-29T03:25:02.250Z,991.99
2022-09-29T03:26:01.955Z,991.99
2022-09-29T03:27:02.311Z,991.97
2022-09-29T03:28:02.639Z,991.94
2022-09-29T03:29:02.325Z,992.00
2022-09-29T03:30:02.702Z,991.95
2022-09-29T03:31:02.426Z,991.97
2022-09-29T03:32:01.865Z,991.99
2022-09-29T03:33:02.215Z,992.00
2022-09-29T03:34:02.271Z,991.98
2022-09-29T03:35:02.002Z,991.96
2022-09-29T03:36:02.370Z,991.96
2022-09-29T03:37:02.487Z,991.98
2022-09-29T03:38:02.876Z,992.01
2022-09-29T03:39:02.543Z,991.99
2022-09-29T03:40:02.924Z,991.99
2022-09-29T03:41:02.736Z,991.98
2022-09-29T03:42:02.190Z,992.02
2022-09-29T03:43:02.667Z,992.00
2022-09-29T03:44:02.178Z,991.99
2022-09-29T03:45:02.532Z,992.00
2022-09-29T03:46:02.792Z,991.97
2022-09-29T03:47:02.277Z,992.02
2022-09-29T03:48:02.650Z,992.04
2022-09-29T03:49:02.322Z,992.05
2022-09-29T03:50:02.655Z,992.03
2022-09-29T03:51:02.338Z,992.04
2022-09-29T03:52:01.859Z,992.04
2022-09-29T03:53:01.731Z,992.09
2022-09-29T03:54:02.317Z,992.11
2022-09-29T03:55:01.701Z,992.10
2022-09-29T03:56:02.062Z,992.14
2022-09-29T03:57:02.469Z,992.15
2022-09-29T03:58:02.811Z,992.16
2022-09-29T03:59:02.589Z,992.18
2022-09-29T04:00:02.275Z,992.22
2022-09-29T04:01:02.901Z,992.23
2022-09-29T04:02:02.088Z,992.22
2022-09-29T04:03:02.369Z,992.20
2022-09-29T04:04:01.873Z,992.21
2022-09-29T04:05:02.312Z,992.22
2022-09-29T04:06:01.980Z,992.21
2022-09-29T04:07:02.416Z,992.28
2022-09-29T04:08:02.764Z,992.25
2022-09-29T04:09:02.160Z,992.21
2022-09-29T04:10:02.559Z,992.26
2022-09-29T04:11:02.309Z,992.27
2022-09-29T04:12:02.607Z,992.26
2022-09-29T04:13:02.979Z,992.25
2022-09-29T04:14:02.408Z,992.28
2022-09-29T04:15:02.767Z,992.27
2022-09-29T04:16:02.478Z,992.27
2022-09-29T04:17:01.848Z,992.24
2022-09-29T04:18:01.531Z,992.23
2022-09-29T04:19:02.343Z,992.23
2022-09-29T04:20:01.850Z,992.22
2022-09-29T04:21:01.547Z,992.24
2022-09-29T04:22:01.918Z,992.27
2022-09-29T04:23:02.213Z,992.29
2022-09-29T04:24:01.678Z,992.24
2022-09-29T04:25:02.073Z,992.27
2022-09-29T04:26:01.674Z,992.26
2022-09-29T04:27:02.509Z,992.27
2022-09-29T04:28:02.213Z,992.27
2022-09-29T04:29:02.615Z,992.31
2022-09-29T04:30:02.339Z,992.31
2022-09-29T04:31:02.821Z,992.34
2022-09-29T04:32:02.046Z,992.41
2022-09-29T04:33:01.670Z,992.40
2022-09-29T04:34:02.065Z,992.39
2022-09-29T04:35:01.762Z,992.34
2022-09-29T04:36:02.140Z,992.40
2022-09-29T04:37:02.619Z,992.44
2022-09-29T04:38:02.400Z,992.43
2022-09-29T04:39:02.551Z,992.44
2022-09-29T04:40:02.286Z,992.45
2022-09-29T04:41:02.762Z,992.43
2022-09-29T04:42:02.034Z,992.44
2022-09-29T04:43:01.710Z,992.43
2022-09-29T04:44:02.107Z,992.41
2022-09-29T04:45:01.820Z,992.43
2022-09-29T04:46:02.276Z,992.42
2022-09-29T04:47:02.461Z,992.43
2022-09-29T04:48:02.019Z,992.44
2022-09-29T04:49:02.209Z,992.40
2022-09-29T04:50:02.614Z,992.45
2022-09-29T04:51:02.062Z,992.42
2022-09-29T04:52:02.383Z,992.43
2022-09-29T04:53:02.130Z,992.44
2022-09-29T04:54:02.519Z,992.45
2022-09-29T04:55:02.206Z,992.45
2022-09-29T04:56:02.551Z,992.42
2022-09-29T04:57:02.015Z,992.45
2022-09-29T04:58:01.705Z,992.46
2022-09-29T04:59:02.109Z,992.46
2022-09-29T05:00:01.577Z,992.47
2022-09-29T05:01:01.774Z,992.46
2022-09-29T05:02:03.042Z,992.51
2022-09-29T05:03:02.814Z,992.48
2022-09-29T05:04:03.213Z,992.47
2022-09-29T05:05:02.929Z,992.48
2022-09-29T05:06:03.338Z,992.47
2022-09-29T05:07:02.557Z,992.49
2022-09-29T05:08:02.267Z,992.48
2022-09-29T05:09:02.007Z,992.50
2022-09-29T05:10:02.424Z,992.49
2022-09-29T05:11:02.149Z,992.53
2022-09-29T05:12:02.655Z,992.53
2022-09-29T05:13:02.687Z,992.55
2022-09-29T05:14:02.199Z,992.58
2022-09-29T05:15:02.422Z,992.57
2022-09-29T05:16:02.564Z,992.59
2022-09-29T05:17:03.057Z,992.58
2022-09-29T05:18:02.948Z,992.65
2022-09-29T05:19:02.709Z,992.65
2022-09-29T05:20:03.169Z,992.63
2022-09-29T05:21:23.272Z,992.62
2022-09-29T05:22:03.185Z,992.64
2022-09-29T05:23:03.301Z,992.67
2022-09-29T05:24:03.098Z,992.67
2022-09-29T05:25:02.883Z,992.67
2022-09-29T05:26:03.365Z,992.68
2022-09-29T05:27:02.639Z,992.71
2022-09-29T05:28:02.680Z,992.70
2022-09-29T05:29:02.076Z,992.68
2022-09-29T05:30:02.136Z,992.70
2022-09-29T05:31:02.043Z,992.71
2022-09-29T05:32:03.320Z,992.67
2022-09-29T05:33:02.893Z,992.69
2022-09-29T05:34:02.736Z,992.73
2022-09-29T05:35:03.235Z,992.71
2022-09-29T05:36:03.040Z,992.71
2022-09-29T05:37:01.874Z,992.70
2022-09-29T05:38:02.370Z,992.74
2022-09-29T05:39:02.184Z,992.73
2022-09-29T05:40:02.536Z,992.71
2022-09-29T05:41:02.190Z,992.75
2022-09-29T05:42:02.366Z,992.70
2022-09-29T05:43:02.342Z,992.78
2022-09-29T05:44:02.834Z,992.77
2022-09-29T05:45:02.878Z,992.74
2022-09-29T05:46:02.514Z,992.78
2022-09-29T05:47:02.915Z,992.78
2022-09-29T05:48:02.760Z,992.80
2022-09-29T05:49:03.033Z,992.79
2022-09-29T05:50:02.656Z,992.80
2022-09-29T05:51:02.470Z,992.79
2022-09-29T05:52:02.047Z,992.82
2022-09-29T05:53:02.200Z,992.83
2022-09-29T05:54:02.028Z,992.81
2022-09-29T05:55:02.314Z,992.80
2022-09-29T05:56:02.624Z,992.81
2022-09-29T05:57:02.281Z,992.83
2022-09-29T05:58:02.745Z,992.81
2022-09-29T05:59:02.626Z,992.80
2022-09-29T06:00:02.860Z,992.84
2022-09-29T06:01:02.638Z,992.85
2022-09-29T06:02:02.438Z,992.87
2022-09-29T06:03:03.015Z,992.86
2022-09-29T06:04:02.681Z,992.87
2022-09-29T06:05:02.525Z,992.85
2022-09-29T06:06:02.386Z,992.89
2022-09-29T06:07:02.451Z,992.88
2022-09-29T06:08:02.096Z,992.87
2022-09-29T06:09:02.012Z,992.92
2022-09-29T06:10:02.478Z,992.94
2022-09-29T06:11:02.138Z,992.89
2022-09-29T06:12:02.010Z,992.91
2022-09-29T06:13:01.904Z,992.91
2022-09-29T06:14:01.886Z,992.87
2022-09-29T06:15:02.373Z,992.87
2022-09-29T06:16:02.626Z,992.88
2022-09-29T06:17:02.300Z,992.88
2022-09-29T06:18:02.183Z,992.89
2022-09-29T06:19:02.691Z,992.92
2022-09-29T06:20:02.543Z,992.89
2022-09-29T06:21:02.373Z,992.89
2022-09-29T06:22:01.913Z,992.92
2022-09-29T06:23:02.266Z,992.92
2022-09-29T06:24:01.870Z,992.95
2022-09-29T06:25:01.812Z,992.93
2022-09-29T06:26:02.312Z,992.93
2022-09-29T06:27:02.572Z,992.97
2022-09-29T06:28:02.414Z,992.94
2022-09-29T06:29:03.042Z,992.94
2022-09-29T06:30:02.606Z,992.93
2022-09-29T06:31:02.684Z,992.95
2022-09-29T06:32:02.380Z,992.98
2022-09-29T06:33:02.360Z,992.98
2022-09-29T06:34:02.235Z,992.97
2022-09-29T06:35:02.183Z,992.93
2022-09-29T06:36:02.712Z,992.99
2022-09-29T06:37:02.841Z,993.03
2022-09-29T06:38:02.664Z,993.00
2022-09-29T06:39:03.193Z,993.03
2022-09-29T06:40:04.148Z,993.02
2022-09-29T06:41:03.062Z,993.03
2022-09-29T06:42:02.486Z,993.07
2022-09-29T06:43:02.381Z,993.04
2022-09-29T06:44:02.722Z,993.04
2022-09-29T06:45:02.517Z,993.01
2022-09-29T06:46:02.390Z,993.01
2022-09-29T06:47:02.523Z,993.05
2022-09-29T06:48:02.478Z,993.04
2022-09-29T06:49:02.280Z,993.10
2022-09-29T06:50:14.263Z,993.08
2022-09-29T06:51:09.514Z,993.07
2022-09-29T06:52:13.225Z,993.11
2022-09-29T06:53:04.637Z,993.10
2022-09-29T06:54:10.760Z,993.13
2022-09-29T06:55:01.901Z,993.10
2022-09-29T06:56:02.510Z,993.11
2022-09-29T06:57:02.741Z,993.10
2022-09-29T06:58:04.218Z,993.15
2022-09-29T06:59:02.801Z,993.12
2022-09-29T07:01:02.638Z,993.14
2022-09-29T07:02:02.368Z,993.16
2022-09-29T07:03:02.309Z,993.15
2022-09-29T07:04:02.034Z,993.18
2022-09-29T07:05:01.953Z,993.16
2022-09-29T07:06:18.953Z,993.17
2022-09-29T07:07:02.710Z,993.17
2022-09-29T07:08:02.773Z,993.20
2022-09-29T07:09:02.580Z,993.21
2022-09-29T07:10:02.477Z,993.23
2022-09-29T07:11:03.019Z,993.23
2022-09-29T07:12:02.948Z,993.23
2022-09-29T07:13:02.742Z,993.22
2022-09-29T07:14:02.669Z,993.26
2022-09-29T07:15:03.176Z,993.22
2022-09-29T07:16:02.746Z,993.23
2022-09-29T07:17:03.030Z,993.24
2022-09-29T07:18:03.210Z,993.21
2022-09-29T07:19:02.902Z,993.24
2022-09-29T07:20:02.710Z,993.24
2022-09-29T07:21:03.228Z,993.25
2022-09-29T07:22:02.763Z,993.21
2022-09-29T07:23:02.337Z,993.20
2022-09-29T07:24:02.802Z,993.17
2022-09-29T07:25:02.734Z,993.20
2022-09-29T07:26:02.513Z,993.20
2022-09-29T07:27:02.975Z,993.21
2022-09-29T07:28:02.770Z,993.20
2022-09-29T07:29:02.684Z,993.22
2022-09-29T07:30:04.470Z,993.19
2022-09-29T07:31:12.564Z,993.20
2022-09-29T07:32:02.563Z,993.21
2022-09-29T07:33:02.800Z,993.17
2022-09-29T07:34:02.486Z,993.16
2022-09-29T07:35:02.401Z,993.21
2022-09-29T07:36:02.246Z,993.20
2022-09-29T07:37:02.808Z,993.22
2022-09-29T07:38:02.564Z,993.22
2022-09-29T07:39:02.483Z,993.26
2022-09-29T07:40:02.390Z,993.26
2022-09-29T07:41:02.364Z,993.24
2022-09-29T07:42:06.125Z,993.28
2022-09-29T07:43:03.232Z,993.29
2022-09-29T07:44:02.874Z,993.27
2022-09-29T07:45:02.784Z,993.24
2022-09-29T07:46:02.895Z,993.26
2022-09-29T07:47:02.105Z,993.24
2022-09-29T07:48:02.661Z,993.23
2022-09-29T07:49:02.243Z,993.27
2022-09-29T07:50:02.037Z,993.28
2022-09-29T07:51:02.662Z,993.33
2022-09-29T07:52:02.908Z,993.30
2022-09-29T07:53:02.547Z,993.29
2022-09-29T07:54:03.002Z,993.30
2022-09-29T07:55:02.522Z,993.31
2022-09-29T07:56:02.413Z,993.30
2022-09-29T07:57:02.916Z,993.31
2022-09-29T07:58:02.938Z,993.30
2022-09-29T07:59:02.666Z,993.30
2022-09-29T08:00:02.563Z,993.31
2022-09-29T08:01:02.792Z,993.33
2022-09-29T08:02:03.651Z,993.32
2022-09-29T08:03:03.261Z,993.31
2022-09-29T08:04:03.230Z,993.33
2022-09-29T08:05:07.332Z,993.36
2022-09-29T08:06:03.548Z,993.37
2022-09-29T08:07:02.959Z,993.36
2022-09-29T08:08:02.452Z,993.36
2022-09-29T08:09:04.996Z,993.39
2022-09-29T08:10:15.106Z,993.41
2022-09-29T08:11:02.430Z,993.44
2022-09-29T08:12:08.015Z,993.44
2022-09-29T08:13:02.762Z,993.43
2022-09-29T08:14:02.714Z,993.47
2022-09-29T08:15:02.622Z,993.49
2022-09-29T08:16:02.893Z,993.53
2022-09-29T08:17:03.412Z,993.53
2022-09-29T08:18:03.004Z,993.52
2022-09-29T08:19:02.813Z,993.54
2022-09-29T08:20:03.349Z,993.55
2022-09-29T08:21:03.996Z,993.57
2022-09-29T08:22:03.689Z,993.57
2022-09-29T08:23:03.326Z,993.55
2022-09-29T08:24:03.257Z,993.57
2022-09-29T08:25:03.099Z,993.57
2022-09-29T08:26:03.327Z,993.58
2022-09-29T08:27:12.799Z,993.60
2022-09-29T08:28:02.797Z,993.64
2022-09-29T08:29:08.219Z,993.63
2022-09-29T08:30:02.516Z,993.62
2022-09-29T08:31:04.548Z,993.62
2022-09-29T08:32:02.735Z,993.64
2022-09-29T08:33:03.307Z,993.66
2022-09-29T08:34:03.327Z,993.67
2022-09-29T08:35:02.874Z,993.64
2022-09-29T08:36:02.645Z,993.68
2022-09-29T08:37:02.312Z,993.70
2022-09-29T08:38:02.261Z,993.74
2022-09-29T08:39:02.884Z,993.79
2022-09-29T08:40:02.650Z,993.79
2022-09-29T08:41:02.695Z,993.80
2022-09-29T08:42:02.627Z,993.81
2022-09-29T08:43:02.606Z,993.80
2022-09-29T08:44:02.592Z,993.80
2022-09-29T08:45:14.637Z,993.78
2022-09-29T08:46:03.211Z,993.82
2022-09-29T08:47:10.128Z,993.84
2022-09-29T08:48:08.026Z,993.84
2022-09-29T08:49:02.974Z,993.83
2022-09-29T08:50:03.619Z,993.86
2022-09-29T08:51:03.326Z,993.84
2022-09-29T08:52:13.242Z,993.85
2022-09-29T08:53:02.314Z,993.85
2022-09-29T08:54:03.978Z,993.84
2022-09-29T08:55:11.958Z,993.84
2022-09-29T08:56:02.450Z,993.82
2022-09-29T08:57:03.037Z,993.78
2022-09-29T08:58:03.583Z,993.83
2022-09-29T08:59:03.975Z,993.84
2022-09-29T09:00:03.087Z,993.82
2022-09-29T09:01:03.042Z,993.86
2022-09-29T09:02:02.815Z,993.84
2022-09-29T09:03:02.860Z,993.81
2022-09-29T09:04:02.865Z,993.83
2022-09-29T09:05:02.716Z,993.84
2022-09-29T09:06:02.594Z,993.83
2022-09-29T09:07:02.234Z,993.89
2022-09-29T09:08:04.133Z,993.89
2022-09-29T09:09:02.121Z,993.88
2022-09-29T09:10:02.011Z,993.83
2022-09-29T09:11:02.224Z,993.84
2022-09-29T09:12:02.737Z,993.82
2022-09-29T09:13:02.549Z,993.84
2022-09-29T09:14:03.117Z,993.88
2022-09-29T09:15:02.759Z,993.84
2022-09-29T09:16:02.840Z,993.88
2022-09-29T09:17:02.870Z,993.89
2022-09-29T09:18:02.780Z,993.93
2022-09-29T09:19:04.743Z,993.92
2022-09-29T09:20:02.738Z,993.89
2022-09-29T09:21:02.696Z,993.88
2022-09-29T09:22:02.372Z,993.87
2022-09-29T09:23:02.283Z,993.86
2022-09-29T09:24:02.121Z,993.89
2022-09-29T09:25:02.647Z,993.90
2022-09-29T09:26:02.596Z,993.88
2022-09-29T09:27:02.423Z,993.88
2022-09-29T09:28:02.309Z,993.92
2022-09-29T09:29:02.609Z,993.91
2022-09-29T09:30:02.444Z,993.91
2022-09-29T09:31:02.430Z,993.91
2022-09-29T09:32:03.038Z,993.91
2022-09-29T09:33:03.016Z,993.88
2022-09-29T09:34:06.459Z,993.88
2022-09-29T09:35:16.128Z,993.86
2022-09-29T09:36:02.733Z,993.90
2022-09-29T09:37:08.036Z,993.86
2022-09-29T09:38:02.442Z,993.86
2022-09-29T09:39:02.403Z,993.86
2022-09-29T09:40:02.341Z,993.84
2022-09-29T09:41:02.237Z,993.84
2022-09-29T09:42:02.889Z,993.84
2022-09-29T09:43:02.913Z,993.82
2022-09-29T09:44:02.921Z,993.84
2022-09-29T09:45:02.925Z,993.83
2022-09-29T09:46:02.640Z,993.85
2022-09-29T09:47:02.316Z,993.86
2022-09-29T09:48:02.262Z,993.87
2022-09-29T09:49:02.211Z,993.85
2022-09-29T09:50:02.595Z,993.88
2022-09-29T09:51:02.441Z,993.85
2022-09-29T09:52:03.063Z,993.86
2022-09-29T09:53:02.941Z,993.88
2022-09-29T09:54:03.256Z,993.85
2022-09-29T09:55:03.034Z,993.85
2022-09-29T09:56:03.000Z,993.85
2022-09-29T09:57:02.724Z,993.85
2022-09-29T09:58:02.722Z,993.86
2022-09-29T09:59:02.631Z,993.85
2022-09-29T10:00:02.518Z,993.87
2022-09-29T10:01:02.500Z,993.84
2022-09-29T10:02:03.176Z,993.84
2022-09-29T10:03:03.063Z,993.82
2022-09-29T10:04:02.886Z,993.83
2022-09-29T10:05:07.411Z,993.82
2022-09-29T10:06:03.086Z,993.79
2022-09-29T10:07:03.669Z,993.79
2022-09-29T10:08:03.526Z,993.79
2022-09-29T10:09:03.548Z,993.81
2022-09-29T10:10:03.557Z,993.78
2022-09-29T10:11:03.429Z,993.80
2022-09-29T10:12:03.043Z,993.79
2022-09-29T10:13:02.792Z,993.79
2022-09-29T10:14:02.614Z,993.82
2022-09-29T10:15:03.022Z,993.80
2022-09-29T10:16:02.887Z,993.75
2022-09-29T10:17:03.538Z,993.78
2022-09-29T10:18:03.149Z,993.78
2022-09-29T10:19:03.570Z,993.78
2022-09-29T10:20:03.385Z,993.78
2022-09-29T10:21:03.043Z,993.78
2022-09-29T10:22:03.682Z,993.79
2022-09-29T10:23:03.338Z,993.79
2022-09-29T10:24:03.667Z,993.81
2022-09-29T10:25:03.273Z,993.78
2022-09-29T10:26:03.481Z,993.81
2022-09-29T10:27:03.742Z,993.81
2022-09-29T10:28:03.614Z,993.78
2022-09-29T10:29:03.487Z,993.84
2022-09-29T10:30:03.680Z,993.81
2022-09-29T10:31:03.567Z,993.82
2022-09-29T10:32:03.486Z,993.81
2022-09-29T10:33:03.561Z,993.81
2022-09-29T10:34:02.960Z,993.84
2022-09-29T10:35:03.562Z,993.84
2022-09-29T10:36:02.980Z,993.83
2022-09-29T10:37:02.980Z,993.86
2022-09-29T10:38:02.527Z,993.83
2022-09-29T10:39:03.712Z,993.84
2022-09-29T10:40:03.001Z,993.83
2022-09-29T10:41:02.690Z,993.87
2022-09-29T10:42:03.467Z,993.88
2022-09-29T10:43:03.212Z,993.85
2022-09-29T10:44:03.010Z,993.85
2022-09-29T10:45:02.970Z,993.85
2022-09-29T10:46:03.337Z,993.86
2022-09-29T10:47:02.469Z,993.88
2022-09-29T10:48:03.136Z,993.81
2022-09-29T10:49:03.074Z,993.86
2022-09-29T10:50:03.057Z,993.84
2022-09-29T10:51:02.931Z,993.86
2022-09-29T10:52:02.835Z,993.83
2022-09-29T10:53:03.096Z,993.83
2022-09-29T10:54:03.085Z,993.86
2022-09-29T10:55:02.982Z,993.81
2022-09-29T10:56:03.494Z,993.85
2022-09-29T10:57:03.517Z,993.89
2022-09-29T10:58:02.771Z,993.91
2022-09-29T10:59:05.576Z,993.89
2022-09-29T11:00:02.798Z,993.88
2022-09-29T11:01:02.795Z,993.85
2022-09-29T11:02:02.612Z,993.86
2022-09-29T11:03:02.225Z,993.90
2022-09-29T11:04:02.194Z,993.90
2022-09-29T11:05:02.305Z,993.92
2022-09-29T11:06:01.944Z,993.93
2022-09-29T11:07:02.077Z,993.89
2022-09-29T11:08:01.899Z,993.90
2022-09-29T11:09:02.382Z,993.92
2022-09-29T11:10:02.410Z,993.91
2022-09-29T11:11:02.069Z,993.95
2022-09-29T11:12:06.124Z,993.96
2022-09-29T11:13:02.424Z,993.95
2022-09-29T11:14:02.324Z,993.97
2022-09-29T11:15:02.863Z,993.94
2022-09-29T11:16:02.658Z,994.00
2022-09-29T11:17:02.584Z,993.98
2022-09-29T11:18:02.180Z,994.00
2022-09-29T11:19:01.983Z,994.00
2022-09-29T11:20:02.227Z,993.99
2022-09-29T11:21:02.126Z,994.03
2022-09-29T11:22:02.071Z,994.03
2022-09-29T11:23:02.577Z,993.98
2022-09-29T11:24:02.374Z,993.99
2022-09-29T11:25:02.948Z,993.97
2022-09-29T11:26:02.782Z,993.98
2022-09-29T11:27:02.609Z,993.98
2022-09-29T11:28:02.619Z,993.99
2022-09-29T11:29:02.380Z,994.01
2022-09-29T11:30:01.999Z,993.99
2022-09-29T11:31:02.423Z,993.99
2022-09-29T11:32:02.179Z,993.98
2022-09-29T11:33:02.911Z,993.96
2022-09-29T11:34:02.831Z,993.98
2022-09-29T11:35:02.473Z,993.95
2022-09-29T11:36:02.472Z,993.89
2022-09-29T11:37:03.104Z,993.90
2022-09-29T11:38:02.186Z,993.89
2022-09-29T11:39:02.541Z,993.93
2022-09-29T11:40:02.483Z,993.93
2022-09-29T11:41:02.645Z,993.95
2022-09-29T11:42:02.313Z,993.96
2022-09-29T11:43:02.890Z,993.96
2022-09-29T11:44:03.170Z,993.94
2022-09-29T11:45:02.807Z,993.94
2022-09-29T11:46:02.834Z,993.93
2022-09-29T11:47:02.608Z,993.95
2022-09-29T11:48:02.280Z,993.98
2022-09-29T11:49:02.035Z,993.96
2022-09-29T11:50:02.099Z,993.93
2022-09-29T11:51:01.947Z,993.95
2022-09-29T11:52:01.953Z,993.97
2022-09-29T11:53:02.630Z,993.93
2022-09-29T11:54:05.302Z,993.98
2022-09-29T11:55:02.209Z,994.00
2022-09-29T11:56:02.205Z,993.97
2022-09-29T11:57:02.203Z,994.01
2022-09-29T11:58:02.716Z,994.03
2022-09-29T11:59:02.703Z,994.02
2022-09-29T12:00:02.999Z,994.03
2022-09-29T12:01:02.759Z,994.03
2022-09-29T12:02:02.644Z,994.03
2022-09-29T12:03:02.119Z,994.07
2022-09-29T12:04:04.668Z,994.09
2022-09-29T12:05:02.158Z,994.07
2022-09-29T12:06:01.770Z,994.04
2022-09-29T12:07:01.740Z,994.05
2022-09-29T12:08:02.589Z,994.01
2022-09-29T12:09:02.605Z,994.01
2022-09-29T12:10:02.518Z,993.99
2022-09-29T12:11:17.963Z,994.01
2022-09-29T12:12:22.576Z,993.99
2022-09-29T12:13:02.878Z,994.00
2022-09-29T12:14:02.775Z,994.00
2022-09-29T12:15:02.807Z,994.03
2022-09-29T12:16:02.962Z,994.01
2022-09-29T12:17:02.918Z,994.02
2022-09-29T12:18:02.228Z,994.06
2022-09-29T12:19:02.206Z,994.04
2022-09-29T12:20:02.067Z,994.04
2022-09-29T12:21:02.593Z,994.03
2022-09-29T12:22:02.255Z,994.03
2022-09-29T12:23:02.723Z,994.02
2022-09-29T12:24:02.809Z,994.02
2022-09-29T12:25:02.409Z,994.03
2022-09-29T12:26:02.327Z,994.02
2022-09-29T12:27:02.377Z,993.98
2022-09-29T12:28:02.976Z,994.02
2022-09-29T12:29:02.961Z,994.00